sensor_id;sensor_type;location;lat;lon;timestamp;temperature;humidity
69598;SHT31;56802;51.184;-115.558;2022-10-31T00:01:39;5.43;72.75
69598;SHT31;56802;51.184;-115.558;2022-10-31T00:04:09;5.45;72.28
69598;SHT31;56802;51.184;-115.558;2022-10-31T00:06:38;5.51;72.03
69598;SHT31;56802;51.184;-115.558;2022-10-31T00:09:09;5.52;71.81
69598;SHT31;56802;51.184;-115.558;2022-10-31T00:11:39;5.52;72.19
69598;SHT31;56802;51.184;-115.558;2022-10-31T00:14:08;5.52;71.99
69598;SHT31;56802;51.184;-115.558;2022-10-31T00:16:37;5.54;71.59
69598;SHT31;56802;51.184;-115.558;2022-10-31T00:19:09;5.58;71.66
69598;SHT31;56802;51.184;-115.558;2022-10-31T00:21:38;5.58;71.08
69598;SHT31;56802;51.184;-115.558;2022-10-31T00:24:08;5.62;70.93
69598;SHT31;56802;51.184;-115.558;2022-10-31T00:26:38;5.65;70.85
69598;SHT31;56802;51.184;-115.558;2022-10-31T00:29:07;5.66;70.51
69598;SHT31;56802;51.184;-115.558;2022-10-31T00:31:36;5.68;70.18
69598;SHT31;56802;51.184;-115.558;2022-10-31T00:34:06;5.69;69.88
69598;SHT31;56802;51.184;-115.558;2022-10-31T00:36:35;5.73;69.54
69598;SHT31;56802;51.184;-115.558;2022-10-31T00:39:04;5.74;69.05
69598;SHT31;56802;51.184;-115.558;2022-10-31T00:41:34;5.75;68.97
69598;SHT31;56802;51.184;-115.558;2022-10-31T00:44:03;5.73;69.13
69598;SHT31;56802;51.184;-115.558;2022-10-31T00:46:32;5.70;69.04
69598;SHT31;56802;51.184;-115.558;2022-10-31T00:49:02;5.70;68.77
69598;SHT31;56802;51.184;-115.558;2022-10-31T00:51:31;5.67;69.24
69598;SHT31;56802;51.184;-115.558;2022-10-31T00:54:01;5.65;69.28
69598;SHT31;56802;51.184;-115.558;2022-10-31T00:56:30;5.64;69.61
69598;SHT31;56802;51.184;-115.558;2022-10-31T00:58:59;5.60;70.21
69598;SHT31;56802;51.184;-115.558;2022-10-31T01:01:29;5.55;70.81
69598;SHT31;56802;51.184;-115.558;2022-10-31T01:03:58;5.50;71.15
69598;SHT31;56802;51.184;-115.558;2022-10-31T01:06:27;5.47;71.17
69598;SHT31;56802;51.184;-115.558;2022-10-31T01:08:56;5.45;71.37
69598;SHT31;56802;51.184;-115.558;2022-10-31T01:11:25;5.44;71.59
69598;SHT31;56802;51.184;-115.558;2022-10-31T01:13:55;5.43;71.81
69598;SHT31;56802;51.184;-115.558;2022-10-31T01:16:24;5.44;71.91
69598;SHT31;56802;51.184;-115.558;2022-10-31T01:18:57;5.42;72.23
69598;SHT31;56802;51.184;-115.558;2022-10-31T01:21:27;5.41;72.49
69598;SHT31;56802;51.184;-115.558;2022-10-31T01:23:57;5.41;72.37
69598;SHT31;56802;51.184;-115.558;2022-10-31T01:26:27;5.41;72.26
69598;SHT31;56802;51.184;-115.558;2022-10-31T01:29:04;5.42;72.17
69598;SHT31;56802;51.184;-115.558;2022-10-31T01:31:37;5.40;72.11
69598;SHT31;56802;51.184;-115.558;2022-10-31T01:34:08;5.41;72.17
69598;SHT31;56802;51.184;-115.558;2022-10-31T01:36:45;5.42;72.19
69598;SHT31;56802;51.184;-115.558;2022-10-31T01:39:18;5.37;72.62
69598;SHT31;56802;51.184;-115.558;2022-10-31T01:41:49;5.35;72.44
69598;SHT31;56802;51.184;-115.558;2022-10-31T01:49:49;5.28;72.99
69598;SHT31;56802;51.184;-115.558;2022-10-31T01:52:31;5.24;72.85
69598;SHT31;56802;51.184;-115.558;2022-10-31T01:55:28;5.24;73.12
69598;SHT31;56802;51.184;-115.558;2022-10-31T01:58:07;5.22;73.40
69598;SHT31;56802;51.184;-115.558;2022-10-31T02:00:50;5.21;73.54
69598;SHT31;56802;51.184;-115.558;2022-10-31T02:03:30;5.24;73.56
69598;SHT31;56802;51.184;-115.558;2022-10-31T02:06:00;5.27;73.56
69598;SHT31;56802;51.184;-115.558;2022-10-31T02:08:40;5.23;73.94
69598;SHT31;56802;51.184;-115.558;2022-10-31T02:11:11;5.21;73.92
69598;SHT31;56802;51.184;-115.558;2022-10-31T02:13:41;5.20;74.14
69598;SHT31;56802;51.184;-115.558;2022-10-31T02:16:10;5.16;74.41
69598;SHT31;56802;51.184;-115.558;2022-10-31T02:18:39;5.14;74.40
69598;SHT31;56802;51.184;-115.558;2022-10-31T02:21:17;5.11;74.46
69598;SHT31;56802;51.184;-115.558;2022-10-31T02:24:29;5.10;74.66
69598;SHT31;56802;51.184;-115.558;2022-10-31T02:34:01;5.11;74.47
69598;SHT31;56802;51.184;-115.558;2022-10-31T02:40:07;5.12;74.51
69598;SHT31;56802;51.184;-115.558;2022-10-31T02:48:53;5.18;74.53
69598;SHT31;56802;51.184;-115.558;2022-10-31T02:51:29;5.17;74.57
69598;SHT31;56802;51.184;-115.558;2022-10-31T02:53:58;5.16;74.67
69598;SHT31;56802;51.184;-115.558;2022-10-31T02:56:27;5.14;74.75
69598;SHT31;56802;51.184;-115.558;2022-10-31T02:58:58;5.14;74.78
69598;SHT31;56802;51.184;-115.558;2022-10-31T03:13:31;5.11;74.40
69598;SHT31;56802;51.184;-115.558;2022-10-31T03:22:17;5.07;75.04
69598;SHT31;56802;51.184;-115.558;2022-10-31T03:24:54;5.07;75.17
69598;SHT31;56802;51.184;-115.558;2022-10-31T03:27:26;5.08;75.31
69598;SHT31;56802;51.184;-115.558;2022-10-31T03:30:01;5.07;75.11
69598;SHT31;56802;51.184;-115.558;2022-10-31T03:32:39;5.06;75.07
69598;SHT31;56802;51.184;-115.558;2022-10-31T03:35:15;5.08;75.05
69598;SHT31;56802;51.184;-115.558;2022-10-31T03:37:48;5.06;75.20
69598;SHT31;56802;51.184;-115.558;2022-10-31T03:40:21;5.06;75.37
69598;SHT31;56802;51.184;-115.558;2022-10-31T03:43:00;5.10;75.51
69598;SHT31;56802;51.184;-115.558;2022-10-31T03:45:39;5.09;75.29
69598;SHT31;56802;51.184;-115.558;2022-10-31T03:48:14;5.11;75.34
69598;SHT31;56802;51.184;-115.558;2022-10-31T03:53:41;5.12;75.33
69598;SHT31;56802;51.184;-115.558;2022-10-31T03:56:27;5.15;75.20
69598;SHT31;56802;51.184;-115.558;2022-10-31T04:01:45;5.14;75.54
69598;SHT31;56802;51.184;-115.558;2022-10-31T04:04:19;5.16;75.66
69598;SHT31;56802;51.184;-115.558;2022-10-31T04:06:50;5.16;75.92
69598;SHT31;56802;51.184;-115.558;2022-10-31T04:09:21;5.14;75.98
69598;SHT31;56802;51.184;-115.558;2022-10-31T04:11:54;5.12;75.98
69598;SHT31;56802;51.184;-115.558;2022-10-31T04:14:27;5.16;75.97
69598;SHT31;56802;51.184;-115.558;2022-10-31T04:17:01;5.16;76.22
69598;SHT31;56802;51.184;-115.558;2022-10-31T04:19:35;5.16;76.33
69598;SHT31;56802;51.184;-115.558;2022-10-31T04:22:04;5.16;76.25
69598;SHT31;56802;51.184;-115.558;2022-10-31T04:24:35;5.19;76.24
69598;SHT31;56802;51.184;-115.558;2022-10-31T04:27:08;5.20;76.31
69598;SHT31;56802;51.184;-115.558;2022-10-31T04:29:37;5.19;76.31
69598;SHT31;56802;51.184;-115.558;2022-10-31T04:32:11;5.17;76.74
69598;SHT31;56802;51.184;-115.558;2022-10-31T04:34:40;5.14;76.84
69598;SHT31;56802;51.184;-115.558;2022-10-31T04:37:09;5.10;76.98
69598;SHT31;56802;51.184;-115.558;2022-10-31T04:39:39;5.09;76.99
69598;SHT31;56802;51.184;-115.558;2022-10-31T04:42:08;5.07;76.98
69598;SHT31;56802;51.184;-115.558;2022-10-31T04:44:37;5.03;76.89
69598;SHT31;56802;51.184;-115.558;2022-10-31T04:47:06;5.04;76.81
69598;SHT31;56802;51.184;-115.558;2022-10-31T04:49:35;5.05;77.00
69598;SHT31;56802;51.184;-115.558;2022-10-31T04:52:05;5.05;77.18
69598;SHT31;56802;51.184;-115.558;2022-10-31T04:54:35;5.01;77.26
69598;SHT31;56802;51.184;-115.558;2022-10-31T04:57:04;5.03;77.27
69598;SHT31;56802;51.184;-115.558;2022-10-31T04:59:34;5.07;77.20
69598;SHT31;56802;51.184;-115.558;2022-10-31T05:02:03;5.11;77.21
69598;SHT31;56802;51.184;-115.558;2022-10-31T05:04:32;5.13;77.19
69598;SHT31;56802;51.184;-115.558;2022-10-31T05:07:02;5.13;77.22
69598;SHT31;56802;51.184;-115.558;2022-10-31T05:09:31;5.14;77.17
69598;SHT31;56802;51.184;-115.558;2022-10-31T05:12:00;5.14;77.17
69598;SHT31;56802;51.184;-115.558;2022-10-31T05:14:30;5.12;76.98
69598;SHT31;56802;51.184;-115.558;2022-10-31T05:16:59;5.08;76.98
69598;SHT31;56802;51.184;-115.558;2022-10-31T05:19:28;5.08;77.13
69598;SHT31;56802;51.184;-115.558;2022-10-31T05:22:00;5.06;77.05
69598;SHT31;56802;51.184;-115.558;2022-10-31T05:24:29;5.07;77.05
69598;SHT31;56802;51.184;-115.558;2022-10-31T05:26:58;5.07;77.16
69598;SHT31;56802;51.184;-115.558;2022-10-31T05:29:27;5.06;77.19
69598;SHT31;56802;51.184;-115.558;2022-10-31T05:32:00;5.05;77.28
69598;SHT31;56802;51.184;-115.558;2022-10-31T05:34:29;5.04;77.49
69598;SHT31;56802;51.184;-115.558;2022-10-31T05:36:58;5.05;77.38
69598;SHT31;56802;51.184;-115.558;2022-10-31T05:39:28;5.04;77.19
69598;SHT31;56802;51.184;-115.558;2022-10-31T05:41:57;5.03;77.09
69598;SHT31;56802;51.184;-115.558;2022-10-31T05:44:26;5.04;77.16
69598;SHT31;56802;51.184;-115.558;2022-10-31T05:46:55;5.00;77.20
69598;SHT31;56802;51.184;-115.558;2022-10-31T05:49:27;5.00;77.21
69598;SHT31;56802;51.184;-115.558;2022-10-31T05:51:57;4.98;77.31
69598;SHT31;56802;51.184;-115.558;2022-10-31T05:54:26;4.93;77.65
69598;SHT31;56802;51.184;-115.558;2022-10-31T05:56:55;4.98;77.59
69598;SHT31;56802;51.184;-115.558;2022-10-31T05:59:24;5.00;77.44
69598;SHT31;56802;51.184;-115.558;2022-10-31T06:01:53;5.01;77.66
69598;SHT31;56802;51.184;-115.558;2022-10-31T06:04:23;4.96;77.75
69598;SHT31;56802;51.184;-115.558;2022-10-31T06:06:52;4.94;77.92
69598;SHT31;56802;51.184;-115.558;2022-10-31T06:09:21;4.93;77.82
69598;SHT31;56802;51.184;-115.558;2022-10-31T06:11:51;4.92;77.80
69598;SHT31;56802;51.184;-115.558;2022-10-31T06:14:21;4.95;77.70
69598;SHT31;56802;51.184;-115.558;2022-10-31T06:16:50;4.96;77.65
69598;SHT31;56802;51.184;-115.558;2022-10-31T06:19:19;4.92;77.71
69598;SHT31;56802;51.184;-115.558;2022-10-31T06:21:48;4.89;77.81
69598;SHT31;56802;51.184;-115.558;2022-10-31T06:24:18;4.89;77.90
69598;SHT31;56802;51.184;-115.558;2022-10-31T06:26:47;4.86;78.04
69598;SHT31;56802;51.184;-115.558;2022-10-31T06:29:16;4.84;78.18
69598;SHT31;56802;51.184;-115.558;2022-10-31T06:31:46;4.84;78.25
69598;SHT31;56802;51.184;-115.558;2022-10-31T06:34:15;4.84;78.33
69598;SHT31;56802;51.184;-115.558;2022-10-31T06:36:47;4.83;78.39
69598;SHT31;56802;51.184;-115.558;2022-10-31T06:39:17;4.82;78.36
69598;SHT31;56802;51.184;-115.558;2022-10-31T06:41:49;4.79;78.45
69598;SHT31;56802;51.184;-115.558;2022-10-31T06:44:18;4.81;78.62
69598;SHT31;56802;51.184;-115.558;2022-10-31T06:46:48;4.81;78.73
69598;SHT31;56802;51.184;-115.558;2022-10-31T06:49:17;4.76;78.79
69598;SHT31;56802;51.184;-115.558;2022-10-31T06:51:49;4.79;78.67
69598;SHT31;56802;51.184;-115.558;2022-10-31T06:54:19;4.83;78.60
69598;SHT31;56802;51.184;-115.558;2022-10-31T06:56:49;4.84;78.63
69598;SHT31;56802;51.184;-115.558;2022-10-31T06:59:18;4.81;78.67
69598;SHT31;56802;51.184;-115.558;2022-10-31T07:01:47;4.76;78.73
69598;SHT31;56802;51.184;-115.558;2022-10-31T07:04:17;4.78;78.67
69598;SHT31;56802;51.184;-115.558;2022-10-31T07:06:47;4.78;78.69
69598;SHT31;56802;51.184;-115.558;2022-10-31T07:09:20;4.81;78.56
69598;SHT31;56802;51.184;-115.558;2022-10-31T07:11:51;4.87;78.38
69598;SHT31;56802;51.184;-115.558;2022-10-31T07:14:21;4.87;78.44
69598;SHT31;56802;51.184;-115.558;2022-10-31T07:16:50;4.82;78.61
69598;SHT31;56802;51.184;-115.558;2022-10-31T07:19:19;4.78;78.66
69598;SHT31;56802;51.184;-115.558;2022-10-31T07:21:49;4.68;78.82
69598;SHT31;56802;51.184;-115.558;2022-10-31T07:24:18;4.61;78.97
69598;SHT31;56802;51.184;-115.558;2022-10-31T07:26:47;4.58;79.04
69598;SHT31;56802;51.184;-115.558;2022-10-31T07:29:17;4.54;79.24
69598;SHT31;56802;51.184;-115.558;2022-10-31T07:31:46;4.50;79.44
69598;SHT31;56802;51.184;-115.558;2022-10-31T07:34:16;4.51;79.38
69598;SHT31;56802;51.184;-115.558;2022-10-31T07:36:45;4.49;79.40
69598;SHT31;56802;51.184;-115.558;2022-10-31T07:39:14;4.46;79.56
69598;SHT31;56802;51.184;-115.558;2022-10-31T07:41:43;4.44;79.62
69598;SHT31;56802;51.184;-115.558;2022-10-31T07:44:12;4.44;79.68
69598;SHT31;56802;51.184;-115.558;2022-10-31T07:46:42;4.47;79.67
69598;SHT31;56802;51.184;-115.558;2022-10-31T07:49:11;4.48;79.66
69598;SHT31;56802;51.184;-115.558;2022-10-31T07:51:40;4.49;79.59
69598;SHT31;56802;51.184;-115.558;2022-10-31T07:54:12;4.47;79.63
69598;SHT31;56802;51.184;-115.558;2022-10-31T07:56:41;4.51;79.41
69598;SHT31;56802;51.184;-115.558;2022-10-31T07:59:10;4.54;79.18
69598;SHT31;56802;51.184;-115.558;2022-10-31T08:01:41;4.54;79.06
69598;SHT31;56802;51.184;-115.558;2022-10-31T08:04:11;4.58;78.82
69598;SHT31;56802;51.184;-115.558;2022-10-31T08:06:40;4.60;78.90
69598;SHT31;56802;51.184;-115.558;2022-10-31T08:09:09;4.61;79.00
69598;SHT31;56802;51.184;-115.558;2022-10-31T08:11:39;4.58;79.07
69598;SHT31;56802;51.184;-115.558;2022-10-31T08:14:08;4.57;79.19
69598;SHT31;56802;51.184;-115.558;2022-10-31T08:16:37;4.54;79.18
69598;SHT31;56802;51.184;-115.558;2022-10-31T08:19:07;4.50;79.24
69598;SHT31;56802;51.184;-115.558;2022-10-31T08:21:36;4.48;79.25
69598;SHT31;56802;51.184;-115.558;2022-10-31T08:24:08;4.45;79.15
69598;SHT31;56802;51.184;-115.558;2022-10-31T08:26:37;4.45;79.16
69598;SHT31;56802;51.184;-115.558;2022-10-31T08:29:07;4.44;79.31
69598;SHT31;56802;51.184;-115.558;2022-10-31T08:31:37;4.46;79.15
69598;SHT31;56802;51.184;-115.558;2022-10-31T08:34:08;4.48;79.26
69598;SHT31;56802;51.184;-115.558;2022-10-31T08:36:37;4.49;79.28
69598;SHT31;56802;51.184;-115.558;2022-10-31T08:39:07;4.46;79.25
69598;SHT31;56802;51.184;-115.558;2022-10-31T08:41:36;4.41;79.39
69598;SHT31;56802;51.184;-115.558;2022-10-31T08:44:05;4.40;79.08
69598;SHT31;56802;51.184;-115.558;2022-10-31T08:46:35;4.41;78.66
69598;SHT31;56802;51.184;-115.558;2022-10-31T08:49:07;4.45;78.52
69598;SHT31;56802;51.184;-115.558;2022-10-31T08:51:37;4.45;78.50
69598;SHT31;56802;51.184;-115.558;2022-10-31T08:54:07;4.45;78.72
69598;SHT31;56802;51.184;-115.558;2022-10-31T08:56:36;4.43;78.71
69598;SHT31;56802;51.184;-115.558;2022-10-31T08:59:05;4.40;78.66
69598;SHT31;56802;51.184;-115.558;2022-10-31T09:01:35;4.39;78.58
69598;SHT31;56802;51.184;-115.558;2022-10-31T09:04:04;4.37;78.76
69598;SHT31;56802;51.184;-115.558;2022-10-31T09:06:34;4.36;78.88
69598;SHT31;56802;51.184;-115.558;2022-10-31T09:09:03;4.32;78.86
69598;SHT31;56802;51.184;-115.558;2022-10-31T09:11:33;4.31;78.84
69598;SHT31;56802;51.184;-115.558;2022-10-31T09:14:02;4.32;78.87
69598;SHT31;56802;51.184;-115.558;2022-10-31T09:16:32;4.30;78.90
69598;SHT31;56802;51.184;-115.558;2022-10-31T09:19:01;4.27;78.95
69598;SHT31;56802;51.184;-115.558;2022-10-31T09:21:37;4.29;78.91
69598;SHT31;56802;51.184;-115.558;2022-10-31T09:24:06;4.34;78.95
69598;SHT31;56802;51.184;-115.558;2022-10-31T09:26:35;4.42;78.96
69598;SHT31;56802;51.184;-115.558;2022-10-31T09:29:05;4.48;78.81
69598;SHT31;56802;51.184;-115.558;2022-10-31T09:31:37;4.47;78.90
69598;SHT31;56802;51.184;-115.558;2022-10-31T09:34:10;4.48;78.96
69598;SHT31;56802;51.184;-115.558;2022-10-31T09:36:39;4.50;78.84
69598;SHT31;56802;51.184;-115.558;2022-10-31T09:39:10;4.46;78.81
69598;SHT31;56802;51.184;-115.558;2022-10-31T09:44:50;4.47;78.76
69598;SHT31;56802;51.184;-115.558;2022-10-31T09:47:24;4.44;78.74
69598;SHT31;56802;51.184;-115.558;2022-10-31T09:50:25;4.38;79.06
69598;SHT31;56802;51.184;-115.558;2022-10-31T09:53:03;4.40;78.91
69598;SHT31;56802;51.184;-115.558;2022-10-31T09:55:48;4.44;78.70
69598;SHT31;56802;51.184;-115.558;2022-10-31T09:58:27;4.44;78.69
69598;SHT31;56802;51.184;-115.558;2022-10-31T10:01:04;4.41;78.90
69598;SHT31;56802;51.184;-115.558;2022-10-31T10:03:43;4.38;78.93
69598;SHT31;56802;51.184;-115.558;2022-10-31T10:06:27;4.38;78.83
69598;SHT31;56802;51.184;-115.558;2022-10-31T10:09:02;4.34;78.96
69598;SHT31;56802;51.184;-115.558;2022-10-31T10:11:36;4.34;79.07
69598;SHT31;56802;51.184;-115.558;2022-10-31T10:18:00;4.25;79.30
69598;SHT31;56802;51.184;-115.558;2022-10-31T10:26:47;4.18;79.53
69598;SHT31;56802;51.184;-115.558;2022-10-31T10:29:29;4.17;79.49
69598;SHT31;56802;51.184;-115.558;2022-10-31T10:32:30;4.20;79.30
69598;SHT31;56802;51.184;-115.558;2022-10-31T10:35:22;4.24;79.16
69598;SHT31;56802;51.184;-115.558;2022-10-31T10:38:15;4.25;79.10
69598;SHT31;56802;51.184;-115.558;2022-10-31T10:40:56;4.24;79.22
69598;SHT31;56802;51.184;-115.558;2022-10-31T10:43:32;4.25;79.09
69598;SHT31;56802;51.184;-115.558;2022-10-31T10:58:00;4.23;79.11
69598;SHT31;56802;51.184;-115.558;2022-10-31T11:03:16;4.20;79.09
69598;SHT31;56802;51.184;-115.558;2022-10-31T11:08:27;4.12;79.27
69598;SHT31;56802;51.184;-115.558;2022-10-31T11:13:49;4.12;79.41
69598;SHT31;56802;51.184;-115.558;2022-10-31T11:16:38;4.14;79.51
69598;SHT31;56802;51.184;-115.558;2022-10-31T11:22:05;4.13;79.71
69598;SHT31;56802;51.184;-115.558;2022-10-31T11:24:45;4.12;79.62
69598;SHT31;56802;51.184;-115.558;2022-10-31T11:27:16;4.13;79.53
69598;SHT31;56802;51.184;-115.558;2022-10-31T11:29:50;4.13;79.43
69598;SHT31;56802;51.184;-115.558;2022-10-31T11:32:26;4.07;79.57
69598;SHT31;56802;51.184;-115.558;2022-10-31T11:34:58;4.07;79.56
69598;SHT31;56802;51.184;-115.558;2022-10-31T11:37:40;4.07;79.60
69598;SHT31;56802;51.184;-115.558;2022-10-31T11:40:20;4.11;79.54
69598;SHT31;56802;51.184;-115.558;2022-10-31T11:42:54;4.16;79.33
69598;SHT31;56802;51.184;-115.558;2022-10-31T11:45:31;4.15;79.40
69598;SHT31;56802;51.184;-115.558;2022-10-31T11:48:01;4.15;79.47
69598;SHT31;56802;51.184;-115.558;2022-10-31T11:50:51;4.13;79.41
69598;SHT31;56802;51.184;-115.558;2022-10-31T11:53:28;4.09;79.52
69598;SHT31;56802;51.184;-115.558;2022-10-31T11:56:19;4.12;79.47
69598;SHT31;56802;51.184;-115.558;2022-10-31T11:58:59;4.16;79.27
69598;SHT31;56802;51.184;-115.558;2022-10-31T12:01:33;4.13;79.32
69598;SHT31;56802;51.184;-115.558;2022-10-31T12:04:10;4.09;79.31
69598;SHT31;56802;51.184;-115.558;2022-10-31T12:06:45;4.06;79.22
69598;SHT31;56802;51.184;-115.558;2022-10-31T12:09:29;4.05;79.34
69598;SHT31;56802;51.184;-115.558;2022-10-31T12:17:47;4.01;79.12
69598;SHT31;56802;51.184;-115.558;2022-10-31T12:20:32;4.01;79.15
69598;SHT31;56802;51.184;-115.558;2022-10-31T12:23:48;4.01;79.03
69598;SHT31;56802;51.184;-115.558;2022-10-31T12:29:29;4.03;78.86
69598;SHT31;56802;51.184;-115.558;2022-10-31T12:50:56;4.00;78.42
69598;SHT31;56802;51.184;-115.558;2022-10-31T12:56:36;4.03;78.68
69598;SHT31;56802;51.184;-115.558;2022-10-31T12:59:45;4.03;78.78
69598;SHT31;56802;51.184;-115.558;2022-10-31T13:05:27;4.08;78.76
69598;SHT31;56802;51.184;-115.558;2022-10-31T13:08:20;4.07;78.77
69598;SHT31;56802;51.184;-115.558;2022-10-31T13:11:16;4.06;78.86
69598;SHT31;56802;51.184;-115.558;2022-10-31T13:13:58;4.07;78.92
69598;SHT31;56802;51.184;-115.558;2022-10-31T13:16:39;4.05;79.05
69598;SHT31;56802;51.184;-115.558;2022-10-31T13:27:46;4.08;78.97
69598;SHT31;56802;51.184;-115.558;2022-10-31T13:30:27;4.21;78.71
69598;SHT31;56802;51.184;-115.558;2022-10-31T13:39:16;4.23;78.78
69598;SHT31;56802;51.184;-115.558;2022-10-31T13:45:11;4.14;79.23
69598;SHT31;56802;51.184;-115.558;2022-10-31T13:48:01;4.13;79.29
69598;SHT31;56802;51.184;-115.558;2022-10-31T13:51:04;4.13;79.32
69598;SHT31;56802;51.184;-115.558;2022-10-31T13:56:33;4.16;79.56
69598;SHT31;56802;51.184;-115.558;2022-10-31T14:01:44;4.16;79.42
69598;SHT31;56802;51.184;-115.558;2022-10-31T14:04:19;4.15;79.41
69598;SHT31;56802;51.184;-115.558;2022-10-31T14:10:20;4.14;79.42
69598;SHT31;56802;51.184;-115.558;2022-10-31T14:12:52;4.01;79.67
69598;SHT31;56802;51.184;-115.558;2022-10-31T14:15:33;3.95;79.75
69598;SHT31;56802;51.184;-115.558;2022-10-31T14:18:16;3.94;79.81
69598;SHT31;56802;51.184;-115.558;2022-10-31T14:20:58;3.93;79.85
69598;SHT31;56802;51.184;-115.558;2022-10-31T14:26:17;3.97;79.70
69598;SHT31;56802;51.184;-115.558;2022-10-31T14:28:56;3.98;79.74
69598;SHT31;56802;51.184;-115.558;2022-10-31T14:35:20;3.98;79.53
69598;SHT31;56802;51.184;-115.558;2022-10-31T14:40:52;3.97;79.60
69598;SHT31;56802;51.184;-115.558;2022-10-31T14:52:07;3.77;79.55
69598;SHT31;56802;51.184;-115.558;2022-10-31T14:54:40;3.66;79.58
69598;SHT31;56802;51.184;-115.558;2022-10-31T14:57:32;3.64;79.63
69598;SHT31;56802;51.184;-115.558;2022-10-31T15:00:05;3.60;79.61
69598;SHT31;56802;51.184;-115.558;2022-10-31T15:05:20;3.47;79.87
69598;SHT31;56802;51.184;-115.558;2022-10-31T15:07:51;3.46;79.98
69598;SHT31;56802;51.184;-115.558;2022-10-31T15:10:27;3.42;80.00
69598;SHT31;56802;51.184;-115.558;2022-10-31T15:13:10;3.42;80.09
69598;SHT31;56802;51.184;-115.558;2022-10-31T15:15:52;3.42;80.14
69598;SHT31;56802;51.184;-115.558;2022-10-31T15:18:24;3.37;80.22
69598;SHT31;56802;51.184;-115.558;2022-10-31T15:20:56;3.35;80.42
69598;SHT31;56802;51.184;-115.558;2022-10-31T15:23:27;3.36;80.51
69598;SHT31;56802;51.184;-115.558;2022-10-31T15:25:59;3.35;80.61
69598;SHT31;56802;51.184;-115.558;2022-10-31T15:28:31;3.42;80.53
69598;SHT31;56802;51.184;-115.558;2022-10-31T15:31:01;3.50;80.27
69598;SHT31;56802;51.184;-115.558;2022-10-31T15:33:32;3.51;80.20
69598;SHT31;56802;51.184;-115.558;2022-10-31T15:36:20;3.43;80.25
69598;SHT31;56802;51.184;-115.558;2022-10-31T15:38:57;3.39;80.42
69598;SHT31;56802;51.184;-115.558;2022-10-31T15:41:32;3.36;80.49
69598;SHT31;56802;51.184;-115.558;2022-10-31T15:44:28;3.36;80.40
69598;SHT31;56802;51.184;-115.558;2022-10-31T15:47:05;3.34;80.30
69598;SHT31;56802;51.184;-115.558;2022-10-31T15:49:48;3.38;80.24
69598;SHT31;56802;51.184;-115.558;2022-10-31T15:52:29;3.41;80.23
69598;SHT31;56802;51.184;-115.558;2022-10-31T15:55:19;3.39;80.30
69598;SHT31;56802;51.184;-115.558;2022-10-31T15:58:03;3.41;80.39
69598;SHT31;56802;51.184;-115.558;2022-10-31T16:00:41;3.38;80.36
69598;SHT31;56802;51.184;-115.558;2022-10-31T16:05:50;3.52;80.44
69598;SHT31;56802;51.184;-115.558;2022-10-31T16:08:24;3.55;80.55
69598;SHT31;56802;51.184;-115.558;2022-10-31T16:13:36;3.59;80.53
69598;SHT31;56802;51.184;-115.558;2022-10-31T16:16:14;3.63;80.79
69598;SHT31;56802;51.184;-115.558;2022-10-31T16:19:01;3.66;81.03
69598;SHT31;56802;51.184;-115.558;2022-10-31T16:21:34;3.69;80.88
69598;SHT31;56802;51.184;-115.558;2022-10-31T16:24:28;3.70;80.77
69598;SHT31;56802;51.184;-115.558;2022-10-31T16:27:04;3.70;80.38
69598;SHT31;56802;51.184;-115.558;2022-10-31T16:29:45;3.77;80.28
69598;SHT31;56802;51.184;-115.558;2022-10-31T16:32:25;3.81;80.38
69598;SHT31;56802;51.184;-115.558;2022-10-31T16:37:38;3.85;80.71
69598;SHT31;56802;51.184;-115.558;2022-10-31T16:40:12;3.86;80.79
69598;SHT31;56802;51.184;-115.558;2022-10-31T16:42:42;3.87;81.00
69598;SHT31;56802;51.184;-115.558;2022-10-31T16:45:16;3.81;80.83
69598;SHT31;56802;51.184;-115.558;2022-10-31T16:47:51;3.76;81.10
69598;SHT31;56802;51.184;-115.558;2022-10-31T16:50:22;3.80;81.31
69598;SHT31;56802;51.184;-115.558;2022-10-31T16:52:54;3.78;81.36
69598;SHT31;56802;51.184;-115.558;2022-10-31T16:55:46;3.71;81.46
69598;SHT31;56802;51.184;-115.558;2022-10-31T16:58:25;3.70;81.76
69598;SHT31;56802;51.184;-115.558;2022-10-31T17:01:05;3.68;81.93
69598;SHT31;56802;51.184;-115.558;2022-10-31T17:03:35;3.68;82.07
69598;SHT31;56802;51.184;-115.558;2022-10-31T17:06:04;3.68;82.24
69598;SHT31;56802;51.184;-115.558;2022-10-31T17:08:36;3.68;82.33
69598;SHT31;56802;51.184;-115.558;2022-10-31T17:11:05;3.70;82.33
69598;SHT31;56802;51.184;-115.558;2022-10-31T17:13:44;3.72;82.37
69598;SHT31;56802;51.184;-115.558;2022-10-31T17:16:14;3.76;82.44
69598;SHT31;56802;51.184;-115.558;2022-10-31T17:18:44;3.78;82.52
69598;SHT31;56802;51.184;-115.558;2022-10-31T17:21:21;3.80;82.44
69598;SHT31;56802;51.184;-115.558;2022-10-31T17:23:54;3.85;82.45
69598;SHT31;56802;51.184;-115.558;2022-10-31T17:26:24;3.80;82.24
69598;SHT31;56802;51.184;-115.558;2022-10-31T17:28:53;3.80;82.50
69598;SHT31;56802;51.184;-115.558;2022-10-31T17:31:26;3.80;82.47
69598;SHT31;56802;51.184;-115.558;2022-10-31T17:33:58;3.83;82.34
69598;SHT31;56802;51.184;-115.558;2022-10-31T17:36:30;3.79;82.00
69598;SHT31;56802;51.184;-115.558;2022-10-31T17:39:03;3.82;82.20
69598;SHT31;56802;51.184;-115.558;2022-10-31T17:41:34;3.86;82.23
69598;SHT31;56802;51.184;-115.558;2022-10-31T17:44:04;3.87;82.06
69598;SHT31;56802;51.184;-115.558;2022-10-31T17:46:34;3.88;81.83
69598;SHT31;56802;51.184;-115.558;2022-10-31T17:49:03;3.89;81.53
69598;SHT31;56802;51.184;-115.558;2022-10-31T17:51:35;3.86;81.38
69598;SHT31;56802;51.184;-115.558;2022-10-31T17:54:04;3.90;81.49
69598;SHT31;56802;51.184;-115.558;2022-10-31T17:56:35;3.94;81.49
69598;SHT31;56802;51.184;-115.558;2022-10-31T17:59:04;3.96;81.48
69598;SHT31;56802;51.184;-115.558;2022-10-31T18:01:34;3.96;81.44
69598;SHT31;56802;51.184;-115.558;2022-10-31T18:04:03;3.97;81.43
69598;SHT31;56802;51.184;-115.558;2022-10-31T18:06:32;4.03;81.47
69598;SHT31;56802;51.184;-115.558;2022-10-31T18:09:02;4.08;81.57
69598;SHT31;56802;51.184;-115.558;2022-10-31T18:11:33;4.15;81.58
69598;SHT31;56802;51.184;-115.558;2022-10-31T18:14:02;4.18;81.15
69598;SHT31;56802;51.184;-115.558;2022-10-31T18:16:32;4.20;81.42
69598;SHT31;56802;51.184;-115.558;2022-10-31T18:19:04;4.27;81.55
69598;SHT31;56802;51.184;-115.558;2022-10-31T18:21:34;4.32;81.28
69598;SHT31;56802;51.184;-115.558;2022-10-31T18:24:03;4.30;81.29
69598;SHT31;56802;51.184;-115.558;2022-10-31T18:26:33;4.34;81.34
69598;SHT31;56802;51.184;-115.558;2022-10-31T18:29:03;4.39;81.66
69598;SHT31;56802;51.184;-115.558;2022-10-31T18:31:33;4.45;81.48
69598;SHT31;56802;51.184;-115.558;2022-10-31T18:34:03;4.50;81.57